createdAt,value
2022-12-11T00:04:16.146Z,59
2022-12-11T00:32:32.595Z,56
2022-12-11T01:00:39.334Z,61
2022-12-11T01:28:59.325Z,63
2022-12-11T01:57:12.956Z,63
2022-12-11T02:26:04.211Z,61
2022-12-11T02:54:49.243Z,48
2022-12-11T03:23:39.962Z,59
2022-12-11T03:52:45.919Z,59
2022-12-11T04:21:07.868Z,59
2022-12-11T04:50:00.404Z,61
2022-12-11T05:18:58.028Z,60
2022-12-11T05:47:56.753Z,63
2022-12-11T06:16:52.831Z,59
2022-12-11T06:45:11.874Z,60
2022-12-11T07:13:50.830Z,63
2022-12-11T07:42:46.219Z,61
2022-12-11T08:11:07.160Z,56
2022-12-11T08:40:06.623Z,54
2022-12-11T09:09:15.364Z,58
2022-12-11T09:37:42.877Z,52
2022-12-11T10:06:46.059Z,49
2022-12-11T10:35:37.169Z,54
2022-12-11T11:04:40.042Z,55
2022-12-11T11:33:24.138Z,56
2022-12-11T12:02:20.552Z,54
2022-12-11T12:31:16.496Z,52
2022-12-11T13:00:01.044Z,52
2022-12-11T13:28:53.540Z,55
2022-12-11T13:57:32.721Z,56
2022-12-11T14:26:27.090Z,51
2022-12-11T14:55:23.837Z,51
2022-12-11T15:23:41.526Z,52
2022-12-11T15:51:55.236Z,53
2022-12-11T16:20:23.698Z,59
2022-12-11T16:48:43.051Z,55
2022-12-11T17:17:00.792Z,55
2022-12-11T17:45:16.073Z,57
2022-12-11T18:13:30.372Z,59
2022-12-11T18:41:43.138Z,56
2022-12-11T19:09:56.661Z,61
2022-12-11T19:38:07.518Z,59
2022-12-11T20:06:21.908Z,63
2022-12-11T20:34:30.967Z,61
2022-12-11T21:02:43.865Z,59
2022-12-11T21:31:11.831Z,56
2022-12-11T21:59:15.840Z,55
2022-12-11T22:27:37.622Z,52
2022-12-11T22:55:39.422Z,48
2022-12-11T23:23:53.820Z,45
2022-12-11T23:52:06.897Z,48
